Latest Weather Observations for North Head

IDN60801

Issued at 10:05 pm EST Wednesday 23 April 2014 (issued every 30 minutes, with the page automatically refreshed every 10 minutes)

About weather observations | Map of weather stations | Latest weather observations for NSW | Other Formats
Station Details ID: 066197 Name: NORTH HEAD Lat: -33.82 Lon: 151.30 Height: 90.0 m
Data from the previous 72 hours. | See also: Recent months for locations in New South Wales
Date/Time
EST
Temp
°C
App
Temp
°C
Dew
Point
Rel
Hum
%
Delta-T
°C
Wind Press
QNH
hPa
Press
MSL
hPa
Rain
since 9 am
mm
Dir
 
Spd
km/h
Gust
km/h
Spd
kts
Gust
kts
23/10:00pm - - - - - N 17 20 9 11 - - -
23/09:30pm - - - - - N 17 22 9 12 - - -
23/09:00pm - - - - - N 13 17 7 9 - - -
23/08:30pm - - - - - N 11 15 6 8 - - -
23/08:00pm - - - - - N 11 13 6 7 - - -
23/07:30pm - - - - - N 11 13 6 7 - - -
23/07:00pm - - - - - NNE 9 13 5 7 - - -
23/06:30pm - - - - - NNE 11 15 6 8 - - -
23/06:00pm - - - - - NE 11 13 6 7 - - -
23/05:30pm - - - - - NE 9 11 5 6 - - -
23/05:00pm - - - - - ENE 6 9 3 5 - - -
23/04:30pm - - - - - E 7 9 4 5 - - -
23/04:00pm - - - - - ESE 9 13 5 7 - - -
23/03:30pm - - - - - ESE 9 15 5 8 - - -
23/03:00pm - - - - - SE 9 13 5 7 - - -
23/02:30pm - - - - - ESE 7 11 4 6 - - -
23/02:00pm - - - - - ESE 7 11 4 6 - - -
23/01:30pm - - - - - SE 6 9 3 5 - - -
23/01:00pm - - - - - SW 6 9 3 5 - - -
23/12:30pm - - - - - W 9 13 5 7 - - -
23/12:00pm - - - - - WSW 9 13 5 7 - - -
23/11:30am - - - - - WSW 9 13 5 7 - - -
23/11:00am - - - - - W 11 17 6 9 - - -
23/10:30am - - - - - W 11 17 6 9 - - -
23/10:00am - - - - - WNW 15 19 8 10 - - -
23/09:30am - - - - - W 15 20 8 11 - - -
23/09:00am - - - - - W 15 20 8 11 - - -
23/08:30am - - - - - W 15 19 8 10 - - -
23/08:00am - - - - - W 13 19 7 10 - - -
23/07:30am - - - - - W 15 19 8 10 - - -
23/07:00am - - - - - W 17 24 9 13 - - -
23/06:30am - - - - - W 17 20 9 11 - - -
23/06:00am - - - - - W 19 22 10 12 - - -
23/05:30am - - - - - W 19 22 10 12 - - -
23/05:00am - - - - - W 17 19 9 10 - - -
23/04:30am - - - - - W 17 22 9 12 - - -
23/04:00am - - - - - W 15 19 8 10 - - -
23/03:30am - - - - - W 17 20 9 11 - - -
23/03:00am - - - - - W 15 20 8 11 - - -
23/02:30am - - - - - W 15 17 8 9 - - -
23/02:00am - - - - - W 11 13 6 7 - - -
23/01:30am - - - - - W 17 20 9 11 - - -
23/01:00am - - - - - W 15 17 8 9 - - -
23/12:30am - - - - - W 15 19 8 10 - - -
23/12:00am - - - - - W 15 19 8 10 - - -
 
Date/Time
EST
Temp
°C
App
Temp
°C
Dew
Point
Rel
Hum
%
Delta-T
°C
Wind Press
QNH
hPa
Press
MSL
hPa
Rain
since 9 am
mm
Dir
 
Spd
km/h
Gust
km/h
Spd
kts
Gust
kts
22/11:30pm - - - - - W 15 17 8 9 - - -
22/11:00pm - - - - - W 17 20 9 11 - - -
22/10:30pm - - - - - W 15 17 8 9 - - -
22/10:00pm - - - - - W 13 15 7 8 - - -
22/09:30pm - - - - - WNW 13 19 7 10 - - -
22/09:00pm - - - - - WNW 13 19 7 10 - - -
22/08:30pm - - - - - NW 11 17 6 9 - - -
22/08:00pm - - - - - WNW 15 20 8 11 - - -
22/07:30pm - - - - - NW 11 13 6 7 - - -
22/07:00pm - - - - - NW 9 15 5 8 - - -
22/06:30pm - - - - - NW 9 11 5 6 - - -
22/06:00pm - - - - - NW 7 9 4 5 - - -
22/05:30pm - - - - - NNW 6 9 3 5 - - -
22/05:00pm - - - - - NNW 6 7 3 4 - - -
22/04:30pm - - - - - WNW 4 6 2 3 - - -
22/04:00pm - - - - - WNW 6 7 3 4 - - -
22/03:30pm - - - - - WNW 7 11 4 6 - - -
22/03:00pm - - - - - SSW 4 6 2 3 - - -
22/02:30pm - - - - - NW 6 9 3 5 - - -
22/02:00pm - - - - - WNW 9 13 5 7 - - -
22/01:30pm - - - - - WNW 6 11 3 6 - - -
22/01:00pm - - - - - WSW 4 9 2 5 - - -
22/12:30pm - - - - - SSW 6 9 3 5 - - -
22/12:00pm - - - - - NW 9 17 5 9 - - -
22/11:30am - - - - - N 6 11 3 6 - - -
22/11:00am - - - - - ENE 4 9 2 5 - - -
22/10:30am - - - - - NNW 4 7 2 4 - - -
22/10:00am - - - - - W 6 7 3 4 - - -
22/09:30am - - - - - WNW 4 6 2 3 - - -
22/09:00am - - - - - W 7 9 4 5 - - -
22/08:30am - - - - - WNW 9 11 5 6 - - -
22/08:00am - - - - - WNW 11 13 6 7 - - -
22/07:30am - - - - - WNW 11 17 6 9 - - -
22/07:00am - - - - - WNW 11 13 6 7 - - -
22/06:30am - - - - - WNW 13 17 7 9 - - -
22/06:00am - - - - - WNW 13 15 7 8 - - -
22/05:30am - - - - - WNW 9 11 5 6 - - -
22/05:00am - - - - - W 11 13 6 7 - - -
22/04:30am - - - - - WNW 11 13 6 7 - - -
22/04:00am - - - - - WNW 11 11 6 6 - - -
22/03:30am - - - - - WNW 9 11 5 6 - - -
22/03:00am - - - - - W 9 11 5 6 - - -
22/02:30am - - - - - WNW 9 11 5 6 - - -
22/02:00am - - - - - WNW 9 11 5 6 - - -
22/01:30am - - - - - NW 9 11 5 6 - - -
22/01:00am - - - - - W 7 9 4 5 - - -
22/12:30am - - - - - W 9 11 5 6 - - -
22/12:00am - - - - - W 9 11 5 6 - - -
 
Date/Time
EST
Temp
°C
App
Temp
°C
Dew
Point
Rel
Hum
%
Delta-T
°C
Wind Press
QNH
hPa
Press
MSL
hPa
Rain
since 9 am
mm
Dir
 
Spd
km/h
Gust
km/h
Spd
kts
Gust
kts
21/11:30pm - - - - - WNW 7 9 4 5 - - -
21/11:00pm - - - - - WNW 7 7 4 4 - - -
21/10:30pm - - - - - WNW 6 7 3 4 - - -
21/10:00pm - - - - - NW 9 9 5 5 - - -
21/09:30pm - - - - - NW 7 7 4 4 - - -
21/09:00pm - - - - - NW 6 6 3 3 - - -
21/08:30pm - - - - - NW 4 7 2 4 - - -
21/08:00pm - - - - - NW 6 6 3 3 - - -
21/07:30pm - - - - - N 4 4 2 2 - - -
21/07:00pm - - - - - CALM 0 0 0 0 - - -
21/06:30pm - - - - - CALM 0 0 0 0 - - -
21/06:00pm - - - - - CALM 0 4 0 2 - - -
21/05:30pm - - - - - SE 2 4 1 2 - - -
21/05:00pm - - - - - SE 6 7 3 4 - - -
21/04:30pm - - - - - ESE 6 9 3 5 - - -
21/04:00pm - - - - - ESE 7 11 4 6 - - -
21/03:30pm - - - - - SE 7 9 4 5 - - -
21/03:00pm - - - - - ESE 7 11 4 6 - - -
21/02:30pm - - - - - E 7 13 4 7 - - -
21/02:00pm - - - - - ESE 6 9 3 5 - - -
21/01:30pm - - - - - E 4 7 2 4 - - -
21/01:00pm - - - - - NNW 4 9 2 5 - - -
21/12:30pm - - - - - WNW 7 11 4 6 - - -
21/12:00pm - - - - - WNW 9 13 5 7 - - -
21/11:30am - - - - - WNW 11 17 6 9 - - -
21/11:00am - - - - - W 13 17 7 9 - - -
21/10:30am - - - - - W 15 20 8 11 - - -
21/10:00am - - - - - W 15 22 8 12 - - -
21/09:30am - - - - - W 17 20 9 11 - - -
21/09:00am - - - - - W 15 20 8 11 - - -
21/08:30am - - - - - W 19 26 10 14 - - -
21/08:00am - - - - - W 17 24 9 13 - - -
21/07:30am - - - - - W 17 28 9 15 - - -
21/07:00am - - - - - W 17 24 9 13 - - -
21/06:30am - - - - - W 19 22 10 12 - - -
21/06:00am - - - - - W 17 22 9 12 - - -
21/05:30am - - - - - W 19 22 10 12 - - -
21/05:00am - - - - - W 17 28 9 15 - - -
21/04:30am - - - - - W 19 26 10 14 - - -
21/04:00am - - - - - W 13 19 7 10 - - -
21/03:30am - - - - - W 13 19 7 10 - - -
21/03:00am - - - - - W 15 20 8 11 - - -
21/02:30am - - - - - WSW 15 22 8 12 - - -
21/02:00am - - - - - WSW 15 22 8 12 - - -
21/01:30am - - - - - W 15 22 8 12 - - -
21/01:00am - - - - - WSW 15 20 8 11 - - -
21/12:30am - - - - - WSW 17 24 9 13 - - -
21/12:00am - - - - - W 15 22 8 12 - - -
 
Date/Time
EST
Temp
°C
App
Temp
°C
Dew
Point
Rel
Hum
%
Delta-T
°C
Wind Press
QNH
hPa
Press
MSL
hPa
Rain
since 9 am
mm
Dir
 
Spd
km/h
Gust
km/h
Spd
kts
Gust
kts
20/11:30pm - - - - - W 13 19 7 10 - - -
20/11:00pm - - - - - W 9 11 5 6 - - -
20/10:30pm - - - - - N 9 13 5 7 - - -

Other Formats:

Comma delimited format used in spreadsheet applications
http://www.bom.gov.au/fwo/IDN60801/IDN60801.95768.axf

JavaScript Object Notation format (JSON) in row-major order
http://www.bom.gov.au/fwo/IDN60801/IDN60801.95768.json